Time;durP1;ratioP1;P1;durP2;ratioP2;P2;SDS_P1;SDS_P2;PMS_P1;PMS_P2;Temp;Humidity;BMP_temperature;BMP_pressure;BME280_temperature;BME280_humidity;BME280_pressure;Samples;Min_cycle;Max_cycle;Signal;HPM_P1;HPM_P2
2022/04/25 00:01:10;;;;;;;3.15;2.45;;;19.20;48.40;;;;;;4954878;28;88394;-73
2022/04/25 00:03:37;;;;;;;3.53;2.50;;;19.20;48.40;;;;;;4955082;28;89737;-73
2022/04/25 00:06:03;;;;;;;3.85;2.55;;;19.20;48.40;;;;;;4954576;28;89543;-73
2022/04/25 00:08:29;;;;;;;3.80;2.60;;;19.20;48.40;;;;;;4954564;28;88163;-72
2022/04/25 00:10:55;;;;;;;3.53;2.50;;;19.20;48.40;;;;;;4954735;28;88359;-73
2022/04/25 00:13:20;;;;;;;5.47;2.75;;;19.20;48.40;;;;;;4953924;28;89447;-71
2022/04/25 00:15:46;;;;;;;3.72;2.72;;;19.20;48.40;;;;;;4953430;28;89422;-72
2022/04/25 00:18:12;;;;;;;3.75;2.70;;;19.20;48.40;;;;;;4953194;28;88245;-73
2022/04/25 00:20:38;;;;;;;4.05;2.40;;;19.10;48.30;;;;;;4953692;28;88616;-73
2022/04/25 00:23:06;;;;;;;3.53;2.45;;;19.10;48.40;;;;;;4953397;28;88177;-73
2022/04/25 00:25:35;;;;;;;3.75;2.70;;;19.20;48.40;;;;;;4953115;28;88833;-73
2022/04/25 00:28:02;;;;;;;3.75;2.60;;;19.10;48.30;;;;;;4953323;28;88736;-73
2022/04/25 00:30:29;;;;;;;4.68;2.75;;;19.10;48.40;;;;;;4954013;28;87775;-73
2022/04/25 00:32:58;;;;;;;3.17;2.70;;;19.10;48.40;;;;;;4953861;28;88567;-73
2022/04/25 00:35:24;;;;;;;3.30;2.40;;;19.10;48.30;;;;;;4952946;28;88476;-72
2022/04/25 00:37:51;;;;;;;3.30;2.53;;;19.10;48.40;;;;;;4953033;28;89048;-72
2022/04/25 00:40:21;;;;;;;3.30;2.60;;;19.10;48.40;;;;;;4952656;28;88172;-73
2022/04/25 00:42:47;;;;;;;4.78;2.80;;;19.10;48.30;;;;;;4952754;28;90416;-73
2022/04/25 00:45:14;;;;;;;4.30;2.92;;;19.10;48.30;;;;;;4952865;28;88503;-73
2022/04/25 00:47:41;;;;;;;4.07;2.67;;;19.10;48.40;;;;;;4953542;28;88578;-73
2022/04/25 00:50:09;;;;;;;3.40;2.65;;;19.10;48.40;;;;;;4953067;28;88541;-73
2022/04/25 00:52:35;;;;;;;3.45;2.60;;;19.10;48.40;;;;;;4936121;28;91941;-74
2022/04/25 00:55:03;;;;;;;3.58;2.75;;;19.10;48.40;;;;;;4953716;28;89757;-72
2022/04/25 00:57:31;;;;;;;3.75;2.78;;;19.10;48.50;;;;;;4954195;28;89695;-73
2022/04/25 00:59:58;;;;;;;3.95;2.45;;;19.10;48.40;;;;;;4936628;28;88212;-73
2022/04/25 01:02:26;;;;;;;3.03;2.70;;;19.10;48.40;;;;;;4953416;28;89431;-72
2022/04/25 01:04:53;;;;;;;4.20;2.50;;;19.10;48.40;;;;;;4953187;28;90185;-74
2022/04/25 01:07:18;;;;;;;3.55;2.67;;;19.10;48.50;;;;;;4954490;28;88052;-73
2022/04/25 01:09:46;;;;;;;4.60;2.88;;;19.00;48.40;;;;;;4954692;28;88337;-73
2022/04/25 01:12:12;;;;;;;3.85;2.72;;;19.00;48.40;;;;;;4953427;28;89684;-73
2022/04/25 01:14:38;;;;;;;4.40;2.92;;;19.00;48.40;;;;;;4954529;28;90171;-73
2022/04/25 01:17:04;;;;;;;3.72;2.47;;;19.00;48.40;;;;;;4954659;28;88036;-73
2022/04/25 01:19:30;;;;;;;4.35;2.70;;;19.00;48.40;;;;;;4954857;28;87522;-73
2022/04/25 01:22:01;;;;;;;3.13;2.63;;;19.00;48.40;;;;;;4953975;28;89905;-73
2022/04/25 01:27:17;;;;;;;4.13;2.85;;;19.00;48.40;;;;;;4953976;28;88854;-73
2022/04/25 01:29:46;;;;;;;4.40;3.00;;;19.00;48.50;;;;;;4954123;28;88143;-73
2022/04/25 01:32:12;;;;;;;3.20;2.80;;;19.00;48.40;;;;;;4954398;28;89684;-73
2022/04/25 01:34:39;;;;;;;3.53;2.60;;;19.00;48.50;;;;;;4953966;28;89702;-72
2022/04/25 01:37:10;;;;;;;3.90;3.00;;;19.00;48.50;;;;;;4953829;28;88454;-73
2022/04/25 01:39:44;;;;;;;4.07;2.83;;;19.00;48.60;;;;;;4954835;28;88150;-73
2022/04/25 01:42:11;;;;;;;3.40;2.65;;;19.00;48.50;;;;;;4955577;28;89945;-73
2022/04/25 01:44:37;;;;;;;3.70;2.75;;;19.00;48.50;;;;;;4955629;28;89368;-72
2022/04/25 01:47:03;;;;;;;5.13;2.75;;;19.00;48.50;;;;;;4936669;28;88103;-72
2022/04/25 01:49:31;;;;;;;3.67;3.08;;;19.00;48.50;;;;;;4956806;28;88060;-73
2022/04/25 01:51:59;;;;;;;5.00;2.78;;;19.00;48.50;;;;;;4958789;28;89435;-72
2022/04/25 01:54:26;;;;;;;4.60;3.10;;;19.00;48.50;;;;;;4964796;28;89410;-73
2022/04/25 01:56:53;;;;;;;4.75;2.83;;;19.00;48.50;;;;;;4963333;28;88549;-74
2022/04/25 01:59:20;;;;;;;4.30;2.95;;;18.90;48.50;;;;;;4959130;28;88109;-73
2022/04/25 02:01:46;;;;;;;4.40;3.00;;;18.90;48.50;;;;;;4957835;28;88562;-73
2022/04/25 02:04:12;;;;;;;3.92;3.05;;;18.90;48.50;;;;;;4957849;28;89665;-71
2022/04/25 02:06:38;;;;;;;4.38;3.10;;;18.90;48.50;;;;;;4956433;28;87977;-70
2022/04/25 02:09:05;;;;;;;3.42;3.00;;;18.90;48.50;;;;;;4957050;28;87565;-71
2022/04/25 02:11:31;;;;;;;3.95;2.78;;;18.90;48.50;;;;;;4956420;28;89635;-72
2022/04/25 02:13:58;;;;;;;4.07;3.08;;;18.90;48.50;;;;;;4956542;28;88487;-72
2022/04/25 02:16:26;;;;;;;4.10;2.85;;;18.90;48.50;;;;;;4956970;28;88684;-71
2022/04/25 02:18:52;;;;;;;4.43;2.70;;;18.90;48.50;;;;;;4956933;28;88248;-71
2022/04/25 02:21:19;;;;;;;3.60;2.90;;;18.90;48.50;;;;;;4955914;28;88756;-72
2022/04/25 02:23:44;;;;;;;4.05;3.10;;;18.90;48.50;;;;;;4961223;28;88934;-73
2022/04/25 02:26:10;;;;;;;3.47;3.03;;;18.90;48.50;;;;;;4959130;28;88477;-72
2022/04/25 02:28:37;;;;;;;3.97;2.85;;;18.90;48.50;;;;;;4941628;28;88793;-71
2022/04/25 02:31:04;;;;;;;3.92;2.95;;;18.90;48.50;;;;;;4955587;28;89464;-72
2022/04/25 02:33:35;;;;;;;4.07;3.20;;;18.90;48.50;;;;;;4957749;28;89978;-71
2022/04/25 02:36:04;;;;;;;4.65;3.25;;;18.80;48.40;;;;;;4956404;28;88300;-70
2022/04/25 02:38:32;;;;;;;4.45;3.28;;;18.90;48.50;;;;;;4957102;28;88052;-72
2022/04/25 02:41:04;;;;;;;3.25;2.70;;;18.90;48.50;;;;;;4955388;28;90659;-71
2022/04/25 02:43:34;;;;;;;4.18;3.00;;;18.80;48.50;;;;;;4955920;28;91608;-71
2022/04/25 02:46:01;;;;;;;4.70;3.25;;;18.80;48.50;;;;;;4955898;28;88099;-71
2022/04/25 02:48:30;;;;;;;4.40;3.05;;;18.80;48.50;;;;;;4956731;28;88533;-72
2022/04/25 02:50:58;;;;;;;3.50;2.90;;;18.80;48.50;;;;;;4956115;28;89735;-71
2022/04/25 02:53:27;;;;;;;3.65;3.03;;;18.80;48.50;;;;;;4955061;28;100557;-71
2022/04/25 02:55:53;;;;;;;4.25;3.33;;;18.80;48.50;;;;;;4956090;28;88154;-71
2022/04/25 02:58:23;;;;;;;5.38;3.05;;;18.80;48.50;;;;;;4956426;28;87583;-72
2022/04/25 03:00:48;;;;;;;4.88;3.15;;;18.80;48.50;;;;;;4955840;28;89073;-72
2022/04/25 03:03:17;;;;;;;4.53;3.38;;;18.80;48.50;;;;;;4955930;28;88463;-72
2022/04/25 03:05:45;;;;;;;8.70;3.45;;;18.80;48.60;;;;;;4956140;28;89129;-71
2022/04/25 03:08:12;;;;;;;4.38;3.30;;;18.80;48.50;;;;;;4955596;28;88350;-71
2022/04/25 03:10:38;;;;;;;4.28;3.20;;;18.80;48.50;;;;;;4954663;28;89952;-71
2022/04/25 03:13:07;;;;;;;3.95;3.13;;;18.80;48.60;;;;;;4954437;28;89642;-71
2022/04/25 03:15:37;;;;;;;4.22;3.30;;;18.80;48.50;;;;;;4955361;28;88126;-73
2022/04/25 04:19:56;;;;;;;4.57;3.03;;;18.70;48.80;;;;;;4217528;22;92775;-73
2022/04/25 04:22:22;;;;;;;5.18;3.53;;;18.70;48.80;;;;;;4953569;28;88090;-73
2022/04/25 04:24:49;;;;;;;4.22;3.67;;;18.60;48.70;;;;;;4953377;28;88125;-72
2022/04/25 04:27:14;;;;;;;4.03;3.25;;;18.60;48.70;;;;;;4953520;28;89416;-72
2022/04/25 04:29:41;;;;;;;5.35;3.85;;;18.60;48.70;;;;;;4953581;28;90408;-71
2022/04/25 04:32:07;;;;;;;3.35;3.05;;;18.70;48.70;;;;;;4953251;28;88019;-73
2022/04/25 04:34:35;;;;;;;4.95;3.67;;;18.70;48.90;;;;;;4953244;28;88101;-71
2022/04/25 04:37:02;;;;;;;3.50;3.20;;;18.70;48.80;;;;;;4953769;28;89688;-72
2022/04/25 04:39:28;;;;;;;4.30;3.60;;;18.70;48.80;;;;;;4953188;28;89907;-72
2022/04/25 04:41:54;;;;;;;4.45;3.22;;;18.70;48.80;;;;;;4953613;28;88241;-71
2022/04/25 04:44:19;;;;;;;4.70;3.50;;;18.60;48.80;;;;;;4953997;28;95683;-71
2022/04/25 04:46:47;;;;;;;4.35;3.88;;;18.60;48.80;;;;;;4953508;28;88715;-69
2022/04/25 04:49:13;;;;;;;6.32;3.97;;;18.70;48.90;;;;;;4952667;28;90100;-70
2022/04/25 04:51:38;;;;;;;5.70;3.70;;;18.60;48.90;;;;;;4952400;28;88753;-72
2022/04/25 04:54:04;;;;;;;4.63;3.95;;;18.60;49.00;;;;;;4953059;28;94583;-72
2022/04/25 04:56:30;;;;;;;4.47;3.80;;;18.60;49.00;;;;;;4953388;28;88769;-72
2022/04/25 04:58:55;;;;;;;4.40;3.80;;;18.70;49.10;;;;;;4954133;28;88835;-72
2022/04/25 05:01:21;;;;;;;5.55;4.30;;;18.60;49.00;;;;;;4953229;28;88585;-72
2022/04/25 05:03:47;;;;;;;4.70;4.10;;;18.70;49.10;;;;;;4953841;28;88482;-72
2022/04/25 05:06:13;;;;;;;4.30;3.85;;;18.70;49.10;;;;;;4953426;28;89915;-73
2022/04/25 05:08:39;;;;;;;5.70;4.22;;;18.70;49.00;;;;;;4954373;28;89423;-73
2022/04/25 05:11:06;;;;;;;5.85;4.20;;;18.70;49.10;;;;;;4953700;28;88677;-72
2022/04/25 05:13:32;;;;;;;6.53;4.15;;;18.70;49.00;;;;;;4953401;28;88041;-72
2022/04/25 05:15:58;;;;;;;6.40;4.35;;;18.70;49.10;;;;;;4952914;28;90067;-72
2022/04/25 05:18:27;;;;;;;5.05;4.22;;;18.70;49.10;;;;;;4953250;28;90439;-72
2022/04/25 05:20:53;;;;;;;5.80;3.90;;;18.70;48.90;;;;;;4954342;28;88083;-73
2022/04/25 05:23:18;;;;;;;5.28;4.60;;;18.70;49.10;;;;;;4953503;28;88542;-74
2022/04/25 05:25:45;;;;;;;7.07;4.55;;;18.70;49.50;;;;;;4953787;28;91262;-73
2022/04/25 05:28:10;;;;;;;6.43;4.50;;;18.70;49.70;;;;;;4956798;28;88318;-72
2022/04/25 05:30:38;;;;;;;7.10;4.68;;;18.80;49.80;;;;;;4956721;28;95843;-73
2022/04/25 05:33:04;;;;;;;6.07;4.38;;;18.80;49.60;;;;;;4956945;28;87535;-72
2022/04/25 05:35:31;;;;;;;6.80;4.57;;;18.80;49.40;;;;;;4956404;28;88653;-73
2022/04/25 05:37:57;;;;;;;6.28;4.70;;;18.80;49.50;;;;;;4955252;28;88818;-72
2022/04/25 05:40:25;;;;;;;8.05;5.22;;;18.80;49.60;;;;;;4955459;28;88823;-73
2022/04/25 05:42:52;;;;;;;9.00;4.68;;;18.80;49.60;;;;;;4956678;28;88271;-71
2022/04/25 05:45:23;;;;;;;6.10;4.57;;;18.80;49.50;;;;;;4956089;28;92409;-73
2022/04/25 05:47:50;;;;;;;6.53;4.43;;;18.80;49.60;;;;;;4956223;28;89067;-73
2022/04/25 05:53:03;;;;;;;11.95;5.28;;;18.80;49.80;;;;;;4957212;28;88328;-72
2022/04/25 05:55:29;;;;;;;12.25;4.97;;;18.80;49.70;;;;;;4956473;28;90508;-72
2022/04/25 05:57:57;;;;;;;14.23;5.13;;;18.80;49.60;;;;;;4956573;28;89663;-72
2022/04/25 06:00:24;;;;;;;12.25;5.15;;;18.80;49.60;;;;;;4955963;28;89077;-70
2022/04/25 06:02:49;;;;;;;9.52;5.00;;;18.80;49.60;;;;;;4956096;28;88627;-72
2022/04/25 06:05:15;;;;;;;7.28;4.30;;;18.80;49.60;;;;;;4955657;28;93148;-72
2022/04/25 06:07:46;;;;;;;7.82;4.30;;;18.80;49.70;;;;;;4955901;28;89210;-72
2022/04/25 06:10:13;;;;;;;7.88;4.32;;;18.90;49.80;;;;;;4956003;28;88755;-72
2022/04/25 06:12:41;;;;;;;7.22;4.55;;;18.90;49.90;;;;;;4956260;28;88265;-73
2022/04/25 06:15:08;;;;;;;7.78;4.85;;;18.90;50.00;;;;;;4956983;28;89753;-72
2022/04/25 06:17:34;;;;;;;14.88;4.70;;;18.90;49.90;;;;;;4955700;28;89433;-72
2022/04/25 06:19:59;;;;;;;7.78;4.68;;;18.90;50.00;;;;;;4955045;28;89206;-72
2022/04/25 06:22:25;;;;;;;7.95;5.15;;;18.90;50.10;;;;;;4937768;28;87759;-72
2022/04/25 06:24:50;;;;;;;9.48;4.82;;;18.90;50.20;;;;;;4956165;28;89677;-72
2022/04/25 06:27:16;;;;;;;8.40;5.28;;;18.90;50.20;;;;;;4955357;28;89580;-73
2022/04/25 06:29:44;;;;;;;9.25;5.10;;;18.90;50.30;;;;;;4955433;28;89230;-72
2022/04/25 06:32:10;;;;;;;9.38;5.00;;;18.80;50.20;;;;;;4956508;28;88134;-72
2022/04/25 06:34:36;;;;;;;8.20;4.97;;;18.80;50.30;;;;;;4956715;28;88950;-72
2022/04/25 06:37:01;;;;;;;11.85;4.82;;;18.80;50.30;;;;;;4956312;28;88760;-72
2022/04/25 06:39:28;;;;;;;9.05;5.53;;;18.70;50.20;;;;;;4955569;28;88533;-73
2022/04/25 06:41:55;;;;;;;8.90;5.43;;;18.80;50.30;;;;;;4956613;28;88147;-72
2022/04/25 06:44:21;;;;;;;7.40;5.28;;;18.70;50.30;;;;;;4959318;28;103040;-72
2022/04/25 06:46:47;;;;;;;7.30;5.35;;;18.70;50.20;;;;;;4959223;28;97228;-73
2022/04/25 06:49:25;;;;;;;8.88;5.30;;;18.70;50.30;;;;;;4956203;28;88143;-71
2022/04/25 06:51:56;;;;;;;8.70;5.18;;;18.70;50.30;;;;;;4956325;28;88019;-72
2022/04/25 06:54:26;;;;;;;8.13;5.38;;;18.70;50.20;;;;;;4955652;28;90014;-72
2022/04/25 06:56:53;;;;;;;7.60;4.93;;;18.70;50.20;;;;;;4956515;28;89136;-72
2022/04/25 06:59:20;;;;;;;8.35;5.13;;;18.70;50.20;;;;;;4955940;28;88102;-73
2022/04/25 07:01:46;;;;;;;8.80;5.13;;;18.70;50.20;;;;;;4955691;28;88477;-72
2022/04/25 07:04:12;;;;;;;6.88;4.82;;;18.70;50.00;;;;;;4954789;28;91723;-72
2022/04/25 07:06:39;;;;;;;9.00;5.13;;;18.70;50.00;;;;;;4954894;28;88383;-72
2022/04/25 07:09:06;;;;;;;7.30;5.00;;;18.80;50.00;;;;;;4954738;28;88514;-73
2022/04/25 07:11:33;;;;;;;7.38;5.35;;;18.80;50.00;;;;;;4955226;28;87907;-72
2022/04/25 07:14:02;;;;;;;8.85;5.03;;;18.80;49.90;;;;;;4954696;28;89822;-72
2022/04/25 07:16:29;;;;;;;9.18;5.63;;;18.70;49.90;;;;;;4954551;28;89346;-73
2022/04/25 07:18:55;;;;;;;7.43;4.78;;;18.80;49.80;;;;;;4954439;28;89256;-73
2022/04/25 07:29:34;;;;;;;5.85;4.72;;;18.80;49.70;;;;;;4954060;28;88396;-72
2022/04/25 07:31:59;;;;;;;8.38;4.90;;;18.80;49.60;;;;;;4954735;28;88644;-72
2022/04/25 07:34:25;;;;;;;6.43;4.85;;;18.80;49.60;;;;;;4955274;28;88131;-72
2022/04/25 07:36:54;;;;;;;6.10;4.72;;;18.80;50.60;;;;;;4954486;28;89453;-72
2022/04/25 07:39:23;;;;;;;5.88;4.82;;;18.80;49.60;;;;;;4955691;28;88664;-72
2022/04/25 07:41:50;;;;;;;8.20;5.20;;;18.80;49.50;;;;;;4937580;28;88207;-72
2022/04/25 07:44:16;;;;;;;6.43;4.65;;;18.80;49.50;;;;;;4955030;28;101449;-71
2022/04/25 07:46:42;;;;;;;6.45;5.03;;;18.80;49.50;;;;;;4954865;28;88950;-72
2022/04/25 07:49:12;;;;;;;6.93;5.00;;;18.70;49.50;;;;;;4954113;28;88538;-72
2022/04/25 07:51:41;;;;;;;6.72;5.20;;;18.80;49.50;;;;;;4936279;28;88654;-73
2022/04/25 07:54:08;;;;;;;8.27;5.35;;;18.70;49.50;;;;;;4954658;28;88784;-72
2022/04/25 07:56:35;;;;;;;7.53;5.07;;;18.70;49.50;;;;;;4953828;28;90498;-72
2022/04/25 07:59:01;;;;;;;8.23;5.00;;;18.70;49.50;;;;;;4952704;28;88141;-72
2022/04/25 08:01:27;;;;;;;6.22;5.07;;;18.70;49.50;;;;;;4954454;28;87278;-72
2022/04/25 08:03:54;;;;;;;7.03;5.10;;;18.70;49.50;;;;;;4954167;28;89828;-73
2022/04/25 08:06:20;;;;;;;7.50;4.90;;;18.70;49.50;;;;;;4954266;28;89547;-74
2022/04/25 08:08:51;;;;;;;9.13;5.07;;;18.70;49.50;;;;;;4952883;28;88835;-73
2022/04/25 08:11:17;;;;;;;6.75;5.07;;;18.70;49.50;;;;;;4954831;28;88168;-72
2022/04/25 08:19:13;;;;;;;6.90;5.20;;;18.70;49.50;;;;;;4954251;28;88087;-72
2022/04/25 08:21:47;;;;;;;6.47;5.18;;;18.60;49.40;;;;;;4954776;28;88086;-73
2022/04/25 08:24:13;;;;;;;5.95;5.35;;;18.60;49.40;;;;;;4958250;28;88981;-73
2022/04/25 08:26:40;;;;;;;7.13;5.40;;;18.60;49.40;;;;;;4956383;28;87832;-72
2022/04/25 08:29:06;;;;;;;7.70;5.47;;;18.60;49.40;;;;;;4937355;28;88229;-72
2022/04/25 08:31:34;;;;;;;8.07;5.72;;;18.60;49.40;;;;;;4953203;28;88097;-73
2022/04/25 08:34:02;;;;;;;8.77;5.63;;;18.60;49.40;;;;;;4954128;28;89924;-73
2022/04/25 08:36:29;;;;;;;6.47;5.75;;;18.60;49.40;;;;;;4953266;28;90305;-72
2022/04/25 08:38:55;;;;;;;7.55;5.65;;;18.60;49.40;;;;;;4954346;28;88152;-72
2022/04/25 08:41:29;;;;;;;6.45;5.70;;;18.60;49.40;;;;;;4953894;28;89158;-73
2022/04/25 08:43:55;;;;;;;6.32;5.32;;;18.60;49.40;;;;;;4953524;28;89835;-72
2022/04/25 08:46:22;;;;;;;6.53;5.82;;;18.60;49.50;;;;;;4953959;28;89518;-72
2022/04/25 08:48:52;;;;;;;7.00;5.25;;;18.60;49.40;;;;;;4953657;28;88001;-72
2022/04/25 08:51:20;;;;;;;8.25;5.53;;;18.60;49.30;;;;;;4953813;28;87550;-72
2022/04/25 08:53:46;;;;;;;6.75;5.55;;;18.60;49.40;;;;;;4953382;28;89650;-71
2022/04/25 08:56:13;;;;;;;7.50;5.90;;;18.50;49.40;;;;;;4953299;28;89686;-72
2022/04/25 08:58:41;;;;;;;6.47;5.50;;;18.60;49.40;;;;;;4951768;28;89162;-72
2022/04/25 09:01:09;;;;;;;7.28;6.15;;;18.60;49.40;;;;;;4952899;28;88069;-73
2022/04/25 09:03:35;;;;;;;7.68;5.43;;;18.50;49.40;;;;;;4952711;28;90372;-71
2022/04/25 09:06:01;;;;;;;7.70;6.03;;;18.60;50.40;;;;;;4953693;28;88337;-71
2022/04/25 09:08:27;;;;;;;7.00;5.70;;;18.60;49.40;;;;;;4953462;28;88374;-74
2022/04/25 09:12:09;;;;;;;8.98;5.93;;;18.50;49.40;;;;;;4953224;28;88577;-71
2022/04/25 09:13:40;;;;;;;6.53;5.22;;;18.50;49.40;;;;;;4953530;28;89897;-74
2022/04/25 09:16:06;;;;;;;8.43;5.85;;;18.50;49.50;;;;;;4953571;28;88590;-74
2022/04/25 09:18:32;;;;;;;8.57;5.80;;;18.50;49.50;;;;;;4952341;28;89565;-73
2022/04/25 09:21:04;;;;;;;7.00;5.70;;;18.50;49.50;;;;;;4952933;28;88507;-73
2022/04/25 09:23:29;;;;;;;6.63;5.72;;;18.50;49.40;;;;;;4952358;28;89423;-73
2022/04/25 09:26:14;;;;;;;7.88;6.07;;;18.50;49.60;;;;;;4953330;28;90152;-74
2022/04/25 09:28:53;;;;;;;7.88;5.65;;;18.50;49.40;;;;;;4953905;28;88679;-73
2022/04/25 09:31:21;;;;;;;8.18;5.53;;;18.50;49.50;;;;;;4952961;28;88385;-73
2022/04/25 09:33:49;;;;;;;7.45;5.53;;;18.50;49.50;;;;;;4951995;28;90166;-72
2022/04/25 09:36:15;;;;;;;6.53;5.20;;;18.50;49.50;;;;;;4953071;28;89610;-73
2022/04/25 09:38:42;;;;;;;7.38;5.70;;;18.50;49.60;;;;;;4952888;28;88109;-71
2022/04/25 09:41:10;;;;;;;7.40;5.60;;;18.50;49.60;;;;;;4953650;28;87653;-72
2022/04/25 09:43:38;;;;;;;8.07;5.60;;;18.50;49.60;;;;;;4953177;28;89650;-71
2022/04/25 09:46:08;;;;;;;7.40;5.10;;;18.40;49.50;;;;;;4952954;28;90157;-71
2022/04/25 09:48:37;;;;;;;6.30;5.40;;;18.50;49.60;;;;;;4951901;28;89843;-72
2022/04/25 09:51:03;;;;;;;6.50;5.70;;;18.40;49.50;;;;;;4952721;28;88637;-71
2022/04/25 09:53:44;;;;;;;6.45;5.40;;;18.40;49.50;;;;;;4952696;28;88545;-71
2022/04/25 09:56:26;;;;;;;8.73;5.45;;;18.40;49.50;;;;;;4953484;28;90057;-72
2022/04/25 09:59:08;;;;;;;7.30;5.10;;;18.40;49.50;;;;;;4953543;28;88530;-71
2022/04/25 10:01:39;;;;;;;6.53;5.70;;;18.40;49.50;;;;;;4953632;28;88007;-73
2022/04/25 10:04:31;;;;;;;5.57;5.00;;;18.40;49.60;;;;;;4954578;28;89711;-71
2022/04/25 10:07:00;;;;;;;7.25;5.47;;;18.40;49.50;;;;;;4958506;28;89505;-71
2022/04/25 10:09:30;;;;;;;6.93;4.93;;;18.40;49.50;;;;;;4955379;28;88596;-72
2022/04/25 10:12:02;;;;;;;6.18;5.55;;;18.40;49.60;;;;;;4953465;28;88740;-71
2022/04/25 10:14:28;;;;;;;6.40;4.65;;;18.40;49.50;;;;;;4954692;28;90960;-71
2022/04/25 10:16:58;;;;;;;7.57;5.43;;;18.40;49.60;;;;;;4955823;28;90271;-71
2022/04/25 10:19:25;;;;;;;7.07;5.45;;;18.40;49.60;;;;;;4955204;28;88268;-71
2022/04/25 10:21:55;;;;;;;5.88;5.18;;;18.40;49.60;;;;;;4955684;28;88070;-71
2022/04/25 10:24:23;;;;;;;7.32;5.20;;;18.40;49.60;;;;;;4955588;28;90303;-71
2022/04/25 10:26:50;;;;;;;6.55;5.15;;;18.40;49.60;;;;;;4956082;28;88643;-71
2022/04/25 10:29:21;;;;;;;6.50;4.90;;;18.40;49.60;;;;;;4955391;28;88192;-71
2022/04/25 10:31:49;;;;;;;6.32;5.40;;;18.40;49.50;;;;;;4955748;28;87770;-73
2022/04/25 10:34:15;;;;;;;7.22;5.55;;;18.40;49.50;;;;;;4937911;28;89066;-73
2022/04/25 10:36:43;;;;;;;5.97;4.97;;;18.40;49.60;;;;;;4955459;28;89559;-74
2022/04/25 10:39:20;;;;;;;6.95;5.43;;;18.40;49.50;;;;;;4954844;28;89393;-71
2022/04/25 10:44:42;;;;;;;6.43;4.80;;;18.40;49.50;;;;;;4955722;28;89032;-72
2022/04/25 10:47:11;;;;;;;7.53;5.40;;;18.40;49.60;;;;;;4954952;28;89477;-71
2022/04/25 10:49:37;;;;;;;5.93;5.32;;;18.40;49.60;;;;;;4954828;28;88281;-72
2022/04/25 10:52:41;;;;;;;6.80;5.25;;;18.40;49.60;;;;;;4955296;28;87986;-71
2022/04/25 10:55:40;;;;;;;6.85;5.57;;;18.40;49.50;;;;;;4954453;28;90264;-71
2022/04/25 10:58:07;;;;;;;6.40;4.82;;;18.40;49.60;;;;;;4956096;28;89682;-71
2022/04/25 11:00:39;;;;;;;6.63;5.20;;;18.40;49.70;;;;;;4954817;28;89418;-72
2022/04/25 11:03:05;;;;;;;7.22;5.07;;;18.40;49.60;;;;;;4956072;28;88674;-72
2022/04/25 11:05:36;;;;;;;7.72;5.85;;;18.40;49.70;;;;;;4955035;28;89217;-73
2022/04/25 11:08:20;;;;;;;6.28;5.22;;;18.40;49.60;;;;;;4955916;28;90274;-72
2022/04/25 11:11:01;;;;;;;6.22;5.20;;;18.40;49.50;;;;;;4955633;28;88145;-72
2022/04/25 11:13:50;;;;;;;6.03;5.35;;;18.40;49.50;;;;;;4937814;28;88513;-73
2022/04/25 11:16:21;;;;;;;6.82;5.40;;;18.40;49.50;;;;;;4926418;28;91523;-72
2022/04/25 11:19:07;;;;;;;5.90;5.25;;;18.40;49.60;;;;;;4953481;28;90028;-74
2022/04/25 11:21:32;;;;;;;6.78;5.20;;;18.40;49.50;;;;;;4953504;28;88570;-71
2022/04/25 11:24:01;;;;;;;6.63;5.47;;;18.40;49.60;;;;;;4955176;28;87312;-72
2022/04/25 11:26:26;;;;;;;6.18;5.28;;;18.40;49.60;;;;;;4954359;28;90473;-72
2022/04/25 11:28:58;;;;;;;6.18;5.57;;;18.40;49.60;;;;;;4953590;28;88854;-70
2022/04/25 11:31:24;;;;;;;6.05;5.18;;;18.40;49.60;;;;;;4953510;28;88933;-73
2022/04/25 11:33:52;;;;;;;6.30;5.70;;;18.40;49.60;;;;;;4954555;28;88214;-73
2022/04/25 11:36:20;;;;;;;5.90;5.03;;;18.40;49.50;;;;;;4955624;28;88674;-73
2022/04/25 11:41:36;;;;;;;7.05;5.38;;;18.40;49.60;;;;;;4955127;28;88225;-73
2022/04/25 11:44:02;;;;;;;6.72;5.35;;;18.40;49.60;;;;;;4954760;28;88127;-72
2022/04/25 11:46:32;;;;;;;6.88;5.00;;;18.40;49.60;;;;;;4957942;28;88793;-72
2022/04/25 11:48:58;;;;;;;6.18;5.40;;;18.40;49.60;;;;;;4958510;28;89238;-72
2022/04/25 11:51:25;;;;;;;5.82;5.22;;;18.40;49.60;;;;;;4937181;28;88205;-73
2022/04/25 11:53:54;;;;;;;6.53;5.50;;;18.40;49.60;;;;;;4955178;28;88141;-72
2022/04/25 11:56:23;;;;;;;6.53;5.43;;;18.40;49.50;;;;;;4954544;28;90278;-73
2022/04/25 11:58:50;;;;;;;5.72;4.95;;;18.40;49.50;;;;;;4954253;28;88174;-73
2022/04/25 12:01:35;;;;;;;6.25;5.35;;;18.30;49.50;;;;;;4953930;28;88467;-74
2022/04/25 12:04:14;;;;;;;6.15;5.03;;;18.40;49.60;;;;;;4954496;28;88137;-73
2022/04/25 12:06:48;;;;;;;5.80;5.18;;;18.40;49.60;;;;;;4954146;28;89729;-72
2022/04/25 12:17:45;;;;;;;5.45;4.90;;;18.30;49.70;;;;;;4954853;28;88181;-71
2022/04/25 12:20:15;;;;;;;5.18;4.57;;;18.30;50.20;;;;;;4953492;28;88923;-72
2022/04/25 12:22:57;;;;;;;6.10;4.88;;;18.30;49.60;;;;;;4953005;28;90582;-72
2022/04/25 12:25:25;;;;;;;6.87;5.13;;;18.30;49.60;;;;;;4953031;28;88192;-72
2022/04/25 12:28:08;;;;;;;6.03;5.00;;;18.30;49.70;;;;;;4953854;28;89736;-73
2022/04/25 12:30:54;;;;;;;5.37;4.87;;;18.30;49.60;;;;;;4953248;28;88470;-72
2022/04/25 12:33:22;;;;;;;6.30;4.80;;;18.30;49.60;;;;;;4952858;28;88784;-72
2022/04/25 12:35:51;;;;;;;5.45;4.65;;;18.30;49.70;;;;;;4953188;28;88206;-72
2022/04/25 12:38:39;;;;;;;5.82;4.88;;;18.30;49.70;;;;;;4952763;28;90509;-72
2022/04/25 12:41:05;;;;;;;6.38;4.80;;;18.30;49.80;;;;;;4953812;28;89305;-72
2022/04/25 12:43:39;;;;;;;7.65;5.57;;;18.30;49.70;;;;;;4953354;28;88300;-73
2022/04/25 12:46:09;;;;;;;6.82;4.85;;;18.30;49.70;;;;;;4953385;28;87977;-72
2022/04/25 12:48:54;;;;;;;5.30;4.80;;;18.30;50.70;;;;;;4952624;28;90494;-72
2022/04/25 12:51:30;;;;;;;5.05;4.53;;;18.30;49.60;;;;;;4952522;28;90300;-71
2022/04/25 12:53:56;;;;;;;5.57;4.75;;;18.30;49.70;;;;;;4954167;28;88544;-72
2022/04/25 12:56:23;;;;;;;6.25;4.55;;;18.30;49.70;;;;;;4952720;28;88667;-71
2022/04/25 12:58:49;;;;;;;5.70;4.70;;;18.30;49.70;;;;;;4953792;28;88920;-72
2022/04/25 13:01:44;;;;;;;6.50;4.90;;;18.30;49.80;;;;;;4953251;28;88611;-73
2022/04/25 13:04:13;;;;;;;4.70;4.22;;;18.30;49.60;;;;;;4935756;28;88513;-72
2022/04/25 13:06:42;;;;;;;6.90;5.10;;;18.30;49.80;;;;;;4951904;28;87415;-72
2022/04/25 13:09:08;;;;;;;5.25;4.47;;;18.30;49.80;;;;;;4953280;28;88681;-73
2022/04/25 13:11:36;;;;;;;5.97;4.70;;;18.30;49.80;;;;;;4935080;28;88209;-72
2022/04/25 13:14:02;;;;;;;4.90;4.40;;;18.30;49.70;;;;;;4952926;28;90035;-74
2022/04/25 13:16:29;;;;;;;4.97;4.50;;;18.30;49.70;;;;;;4953777;28;88156;-73
2022/04/25 13:18:55;;;;;;;4.75;4.22;;;18.30;49.80;;;;;;4952052;28;88689;-72
2022/04/25 13:21:21;;;;;;;6.43;4.70;;;18.30;49.80;;;;;;4953162;28;89459;-72
2022/04/25 13:23:50;;;;;;;5.43;4.43;;;18.30;49.70;;;;;;4953889;28;88556;-73
2022/04/25 13:26:24;;;;;;;5.05;4.30;;;18.30;49.80;;;;;;4955275;28;88338;-71
2022/04/25 13:28:51;;;;;;;5.25;4.20;;;18.30;49.70;;;;;;4957690;28;98222;-72
2022/04/25 13:31:17;;;;;;;6.53;4.85;;;18.30;49.80;;;;;;4955717;28;88345;-72
2022/04/25 13:33:42;;;;;;;5.10;4.43;;;18.30;49.80;;;;;;4954067;28;88106;-73
2022/04/25 13:36:08;;;;;;;4.90;4.10;;;18.30;49.70;;;;;;4953371;28;88541;-73
2022/04/25 13:38:34;;;;;;;4.82;4.20;;;18.30;49.80;;;;;;4951712;28;90603;-72
2022/04/25 13:41:02;;;;;;;5.35;4.45;;;18.30;49.80;;;;;;4952027;28;90294;-71
2022/04/25 13:43:28;;;;;;;5.30;4.30;;;18.30;49.80;;;;;;4952102;28;88169;-73
2022/04/25 13:45:54;;;;;;;5.68;4.20;;;18.30;49.80;;;;;;4951676;28;88340;-73
2022/04/25 13:48:23;;;;;;;5.13;4.38;;;18.30;49.80;;;;;;4953509;28;89567;-71
2022/04/25 13:50:48;;;;;;;4.32;3.92;;;18.30;49.80;;;;;;4955467;28;89269;-72
2022/04/25 13:53:14;;;;;;;4.68;4.18;;;18.30;49.80;;;;;;4956677;28;89672;-71
2022/04/25 13:55:40;;;;;;;4.53;4.07;;;18.30;49.80;;;;;;4956799;28;87465;-72
2022/04/25 13:58:06;;;;;;;6.05;4.45;;;18.30;49.80;;;;;;4956061;28;89267;-72
2022/04/25 14:00:33;;;;;;;4.85;4.38;;;18.30;49.80;;;;;;4955888;28;88682;-72
2022/04/25 14:03:09;;;;;;;4.82;4.05;;;18.30;49.80;;;;;;4955055;28;89227;-73
2022/04/25 14:05:40;;;;;;;4.93;4.10;;;18.30;49.80;;;;;;4956010;28;88251;-73
2022/04/25 14:08:07;;;;;;;6.60;4.28;;;18.30;49.80;;;;;;4955947;28;89690;-72
2022/04/25 14:10:33;;;;;;;4.60;4.03;;;18.30;49.80;;;;;;4955552;28;89586;-72
2022/04/25 14:13:00;;;;;;;4.45;4.03;;;18.30;49.80;;;;;;4956033;28;88661;-72
2022/04/25 14:15:26;;;;;;;4.97;4.43;;;18.30;49.80;;;;;;4955695;28;88178;-72
2022/04/25 14:17:51;;;;;;;4.68;3.78;;;18.40;49.80;;;;;;4955151;28;89668;-72
2022/04/25 14:20:17;;;;;;;4.55;4.10;;;18.30;49.80;;;;;;4956078;28;89030;-75
2022/04/25 14:22:43;;;;;;;4.32;3.92;;;18.30;49.80;;;;;;4954990;28;88220;-73
2022/04/25 14:25:09;;;;;;;6.38;4.00;;;18.30;49.80;;;;;;4955334;28;88071;-73
2022/04/25 14:27:38;;;;;;;4.50;4.00;;;18.40;49.80;;;;;;4954508;28;89526;-73